Laporte, Colorado
Current Conditions -  °F | °C
As of 9:35 AM on Friday 21 Nov 2014 (Local Time) from KFNL Reporting Station
Clear Clear  
Wind Chill: 39°   Ceiling: Unl
Heat Index: 39°   Visibility: 10mi
Dew Point: 28°   Wind: 3mph
Humidity: 65%   Direction: 340°NNW
Pressure: 29.98"   Gusts: NA
Location:  40.63°N, 105.14°W
Report Text: KFNL 211635Z AUTO 34003KT 10SM CLR 04/M02 A2998 RMK AO1
Loading
Personal Weather Stations






























Interactive Weather Map New forecast layout! Learn more

10-Day Weather Forecast

Advertisements
Track Severe Weather on mobile